createdAt,value
2016-05-20T00:00:37.895Z,10.09
2016-05-20T00:01:37.866Z,10.15
2016-05-20T00:02:37.821Z,10.25
2016-05-20T00:03:37.793Z,10.26
2016-05-20T00:04:37.764Z,10.26
2016-05-20T00:05:37.736Z,10.18
2016-05-20T00:06:37.692Z,10.15
2016-05-20T00:07:37.648Z,10.14
2016-05-20T00:08:37.619Z,10.15
2016-05-20T00:09:37.450Z,10.18
2016-05-20T00:10:37.547Z,10.15
2016-05-20T00:11:37.361Z,10.22
2016-05-20T00:12:37.473Z,10.12
2016-05-20T00:13:37.444Z,10.2
2016-05-20T00:14:37.417Z,10.2
2016-05-20T00:15:37.372Z,10.15
2016-05-20T00:16:37.344Z,10.23
2016-05-20T00:17:37.316Z,10.2
2016-05-20T00:18:38.677Z,10.12
2016-05-20T00:19:37.242Z,10.2
2016-05-20T00:20:37.058Z,10.14
2016-05-20T00:21:37.169Z,10.18
2016-05-20T00:22:37.125Z,10.11
2016-05-20T00:23:37.113Z,10.15
2016-05-20T00:24:37.474Z,10.17
2016-05-20T00:25:36.883Z,10.15
2016-05-20T00:26:37.010Z,10.04
2016-05-20T00:27:36.967Z,10.07
2016-05-20T00:28:36.938Z,10.04
2016-05-20T00:29:36.894Z,10.04
2016-05-20T00:30:36.710Z,10.08
2016-05-20T00:31:36.837Z,10.02
2016-05-20T00:32:36.637Z,9.94
2016-05-20T00:33:36.780Z,9.87
2016-05-20T00:34:36.721Z,9.9
2016-05-20T00:35:36.754Z,9.93
2016-05-20T00:36:36.663Z,9.86
2016-05-20T00:37:36.619Z,9.89
2016-05-20T00:38:36.434Z,9.81
2016-05-20T00:39:36.609Z,9.76
2016-05-20T00:40:36.517Z,9.79
2016-05-20T00:41:36.505Z,9.65
2016-05-20T00:42:36.460Z,9.71
2016-05-20T00:43:36.416Z,9.61
2016-05-20T00:44:36.389Z,9.66
2016-05-20T00:45:36.344Z,9.58
2016-05-20T00:46:36.314Z,9.53
2016-05-20T00:47:36.286Z,9.46
2016-05-20T00:48:36.242Z,9.4
2016-05-20T00:49:36.214Z,9.4
2016-05-20T00:50:36.169Z,9.35
2016-05-20T00:51:36.141Z,9.29
2016-05-20T00:52:36.113Z,9.28
2016-05-20T00:53:36.083Z,9.26
2016-05-20T00:54:36.180Z,9.17
2016-05-20T00:55:35.996Z,9.08
2016-05-20T00:56:35.966Z,9.08
2016-05-20T00:57:35.923Z,9.1
2016-05-20T00:58:35.910Z,9.05
2016-05-20T00:59:35.882Z,9.08
2016-05-20T01:00:35.837Z,8.96
2016-05-20T01:01:35.793Z,9.01
2016-05-20T01:02:35.765Z,8.87
2016-05-20T01:03:35.721Z,8.96
2016-05-20T01:04:35.707Z,8.89
2016-05-20T01:05:35.507Z,8.89
2016-05-20T01:06:35.618Z,8.86
2016-05-20T01:07:35.434Z,8.74
2016-05-20T01:08:35.546Z,8.77
2016-05-20T01:09:35.455Z,8.7
2016-05-20T01:10:35.333Z,8.62
2016-05-20T01:11:35.350Z,8.59
2016-05-20T01:12:35.416Z,8.62
2016-05-20T01:13:35.373Z,8.63
2016-05-20T01:14:35.358Z,8.63
2016-05-20T01:15:35.299Z,8.56
2016-05-20T01:16:35.270Z,8.61
2016-05-20T01:17:35.242Z,8.48
2016-05-20T01:18:35.198Z,8.52
2016-05-20T01:19:35.169Z,8.53
2016-05-20T01:20:35.141Z,8.52
2016-05-20T01:21:35.096Z,8.5
2016-05-20T01:22:35.052Z,8.5
2016-05-20T01:23:35.024Z,8.47
2016-05-20T01:24:34.963Z,8.45
2016-05-20T01:25:34.951Z,8.41
2016-05-20T01:26:34.922Z,8.48
2016-05-20T01:27:34.879Z,8.52
2016-05-20T01:28:34.850Z,8.45
2016-05-20T01:29:34.805Z,8.45
2016-05-20T01:30:34.777Z,8.38
2016-05-20T01:31:34.749Z,8.41
2016-05-20T01:32:34.704Z,8.44
2016-05-20T01:33:34.660Z,8.36
2016-05-20T01:34:34.632Z,8.41
2016-05-20T01:35:34.446Z,8.36
2016-05-20T01:36:34.559Z,8.38
2016-05-20T01:37:34.531Z,8.33
2016-05-20T01:38:34.501Z,8.34
2016-05-20T01:39:34.317Z,8.29
2016-05-20T01:40:34.428Z,8.33
2016-05-20T01:41:34.385Z,8.34
2016-05-20T01:42:34.341Z,8.3
2016-05-20T01:43:34.311Z,8.3
2016-05-20T01:44:34.128Z,8.29
2016-05-20T01:45:34.239Z,8.33
2016-05-20T01:46:34.211Z,8.28
2016-05-20T01:47:34.167Z,8.41
2016-05-20T01:48:34.138Z,8.4
2016-05-20T01:49:34.109Z,8.41
2016-05-20T01:50:34.065Z,8.43
2016-05-20T01:51:34.036Z,8.43
2016-05-20T01:52:33.992Z,8.47
2016-05-20T01:53:33.948Z,8.36
2016-05-20T01:54:34.060Z,8.52
2016-05-20T01:55:33.891Z,8.5
2016-05-20T01:56:33.847Z,8.44
2016-05-20T01:57:33.818Z,8.36
2016-05-20T01:58:33.790Z,8.52
2016-05-20T01:59:33.746Z,8.45
2016-05-20T02:00:33.718Z,8.47
2016-05-20T02:01:33.688Z,8.38
2016-05-20T02:02:33.644Z,8.41
2016-05-20T02:03:33.600Z,8.44
2016-05-20T02:04:33.571Z,8.41
2016-05-20T02:05:33.527Z,8.45
2016-05-20T02:06:33.498Z,8.53
2016-05-20T02:07:33.470Z,8.53
2016-05-20T02:08:33.426Z,8.53
2016-05-20T02:09:33.398Z,8.48
2016-05-20T02:10:33.370Z,8.52
2016-05-20T02:11:33.326Z,8.55
2016-05-20T02:12:33.296Z,8.5
2016-05-20T02:13:33.253Z,8.52
2016-05-20T02:14:33.208Z,8.56
2016-05-20T02:15:33.194Z,8.59
2016-05-20T02:16:33.136Z,8.53
2016-05-20T02:17:33.106Z,8.52
2016-05-20T02:18:32.906Z,8.5
2016-05-20T02:19:33.034Z,8.56
2016-05-20T02:20:33.005Z,8.48
2016-05-20T02:21:32.977Z,8.45
2016-05-20T02:22:32.947Z,8.4
2016-05-20T02:23:32.905Z,8.41
2016-05-20T02:24:33.219Z,8.45
2016-05-20T02:25:32.878Z,8.4
2016-05-20T02:26:32.788Z,8.53
2016-05-20T02:27:32.743Z,8.43
2016-05-20T02:28:32.730Z,8.34
2016-05-20T02:29:32.529Z,8.29
2016-05-20T02:30:32.641Z,8.33
2016-05-20T02:31:32.457Z,8.3
2016-05-20T02:32:32.568Z,8.23
2016-05-20T02:33:32.384Z,8.18
2016-05-20T02:34:32.511Z,8.22
2016-05-20T02:35:32.482Z,8.25
2016-05-20T02:36:32.439Z,8.19
2016-05-20T02:37:32.410Z,8.15
2016-05-20T02:38:32.491Z,8.05
2016-05-20T02:39:32.166Z,8.1
2016-05-20T02:40:32.356Z,8
2016-05-20T02:41:32.249Z,7.97
2016-05-20T02:42:32.065Z,7.98
2016-05-20T02:43:32.270Z,7.92
2016-05-20T02:44:32.054Z,7.9
2016-05-20T02:45:32.181Z,7.9
2016-05-20T02:46:32.091Z,7.87
2016-05-20T02:47:32.047Z,7.83
2016-05-20T02:48:32.003Z,7.87
2016-05-20T02:49:31.974Z,7.75
2016-05-20T02:50:31.930Z,7.8
2016-05-20T02:51:31.917Z,7.64
2016-05-20T02:52:31.873Z,7.68
2016-05-20T02:53:31.828Z,7.68
2016-05-20T02:54:31.644Z,7.57
2016-05-20T02:55:31.756Z,7.55
2016-05-20T02:56:31.727Z,7.55
2016-05-20T02:57:31.527Z,7.55
2016-05-20T02:58:31.638Z,7.46
2016-05-20T02:59:31.610Z,7.39
2016-05-20T03:00:31.613Z,7.5
2016-05-20T03:01:31.538Z,7.43
2016-05-20T03:02:31.494Z,7.4
2016-05-20T03:03:31.323Z,7.43
2016-05-20T03:04:31.436Z,7.43
2016-05-20T03:05:31.392Z,7.42
2016-05-20T03:06:31.363Z,7.39
2016-05-20T03:07:31.335Z,7.39
2016-05-20T03:08:31.306Z,7.43
2016-05-20T03:09:31.262Z,7.34
2016-05-20T03:10:31.249Z,7.25
2016-05-20T03:11:31.173Z,7.34
2016-05-20T03:12:31.145Z,7.39
2016-05-20T03:13:31.116Z,7.32
2016-05-20T03:14:31.072Z,7.34
2016-05-20T03:15:31.045Z,7.24
2016-05-20T03:16:31.000Z,7.3
2016-05-20T03:17:30.955Z,7.23
2016-05-20T03:18:30.928Z,7.17
2016-05-20T03:19:30.883Z,7.15
2016-05-20T03:20:30.853Z,7.16
2016-05-20T03:21:30.825Z,7.21
2016-05-20T03:22:30.781Z,7.23
2016-05-20T03:23:30.596Z,7.21
2016-05-20T03:24:30.989Z,7.21
2016-05-20T03:25:30.681Z,7.15
2016-05-20T03:26:30.651Z,7.13
2016-05-20T03:27:30.607Z,7.13
2016-05-20T03:28:30.563Z,6.98
2016-05-20T03:29:30.535Z,7.15
2016-05-20T03:30:30.491Z,7.03
2016-05-20T03:31:30.321Z,7.03
2016-05-20T03:32:30.433Z,7.02
2016-05-20T03:33:30.388Z,7.02
2016-05-20T03:34:30.345Z,7.02
2016-05-20T03:35:30.332Z,6.99
2016-05-20T03:36:30.271Z,6.99
2016-05-20T03:37:30.103Z,7.02
2016-05-20T03:38:30.215Z,6.99
2016-05-20T03:39:30.030Z,6.99
2016-05-20T03:40:30.126Z,6.97
2016-05-20T03:41:30.098Z,6.97
2016-05-20T03:42:30.054Z,7.03
2016-05-20T03:43:30.010Z,6.94
2016-05-20T03:44:29.981Z,6.99
2016-05-20T03:45:29.953Z,6.95
2016-05-20T03:46:29.923Z,7.03
2016-05-20T03:47:29.880Z,7.03
2016-05-20T03:48:29.850Z,6.99
2016-05-20T03:49:29.806Z,7.1
2016-05-20T03:50:29.763Z,7.02
2016-05-20T03:51:29.750Z,7.05
2016-05-20T03:52:29.706Z,7.1
2016-05-20T03:53:29.662Z,7.09
2016-05-20T03:54:29.820Z,7.06
2016-05-20T03:55:29.433Z,7.03
2016-05-20T03:56:29.561Z,7.03
2016-05-20T03:57:29.563Z,7.09
2016-05-20T03:58:29.472Z,7.12
2016-05-20T03:59:29.443Z,7.06
2016-05-20T04:00:29.399Z,7.2
2016-05-20T04:01:29.355Z,6.98
2016-05-20T04:02:29.171Z,7.16
2016-05-20T04:03:29.282Z,7.1
2016-05-20T04:04:29.254Z,7.05
2016-05-20T04:05:29.225Z,7.05
2016-05-20T04:06:29.182Z,7.16
2016-05-20T04:07:29.152Z,7.07
2016-05-20T04:08:29.107Z,7.21
2016-05-20T04:09:29.080Z,7.23
2016-05-20T04:10:28.879Z,7.35
2016-05-20T04:11:29.007Z,7.4
2016-05-20T04:12:28.962Z,7.4
2016-05-20T04:13:28.934Z,7.46
2016-05-20T04:14:28.890Z,7.57
2016-05-20T04:15:28.862Z,7.68
2016-05-20T04:16:28.834Z,7.69
2016-05-20T04:17:28.804Z,7.83
2016-05-20T04:18:28.760Z,7.86
2016-05-20T04:19:28.717Z,7.89
2016-05-20T04:20:28.687Z,7.92
2016-05-20T04:21:28.487Z,7.95
2016-05-20T04:22:28.614Z,8.07
2016-05-20T04:23:28.570Z,8.05
2016-05-20T04:24:28.714Z,8.08
2016-05-20T04:25:28.513Z,8.02
2016-05-20T04:26:28.469Z,8.04
2016-05-20T04:27:28.424Z,8.18
2016-05-20T04:28:28.396Z,8.19
2016-05-20T04:29:28.197Z,8.22
2016-05-20T04:30:28.324Z,8.23
2016-05-20T04:31:28.295Z,8.2
2016-05-20T04:32:28.251Z,8.3
2016-05-20T04:33:28.222Z,8.29
2016-05-20T04:34:28.038Z,8.47
2016-05-20T04:35:28.165Z,8.53
2016-05-20T04:36:27.965Z,8.65
2016-05-20T04:37:28.076Z,8.74
2016-05-20T04:38:28.033Z,9.04
2016-05-20T04:39:28.021Z,9.33
2016-05-20T04:40:27.976Z,9.56
2016-05-20T04:41:27.932Z,9.78
2016-05-20T04:42:27.903Z,10.07
2016-05-20T04:43:27.859Z,10.3
2016-05-20T04:44:27.830Z,10.68
2016-05-20T04:45:27.801Z,10.88
2016-05-20T04:46:27.773Z,11.18
2016-05-20T04:47:27.728Z,11.44
2016-05-20T04:48:27.700Z,11.67
2016-05-20T04:49:27.656Z,11.85
2016-05-20T04:50:27.642Z,12.23
2016-05-20T04:51:27.599Z,12.41
2016-05-20T04:52:27.570Z,12.68
2016-05-20T04:53:27.386Z,12.89
2016-05-20T04:54:27.498Z,12.96
2016-05-20T04:55:27.500Z,13.26
2016-05-20T04:56:27.440Z,13.48
2016-05-20T04:57:27.255Z,13.55
2016-05-20T04:58:27.383Z,13.71
2016-05-20T04:59:27.355Z,13.91
2016-05-20T05:00:27.310Z,13.96
2016-05-20T05:01:27.298Z,14.04
2016-05-20T05:02:27.252Z,14.28
2016-05-20T05:03:27.224Z,14.45
2016-05-20T05:04:27.197Z,14.43
2016-05-20T05:05:27.168Z,14.57
2016-05-20T05:06:27.139Z,14.73
2016-05-20T05:07:27.110Z,14.62
2016-05-20T05:08:27.082Z,14.62
2016-05-20T05:09:26.976Z,14.47
2016-05-20T05:10:27.024Z,14.61
2016-05-20T05:11:26.981Z,14.58
2016-05-20T05:12:26.951Z,14.61
2016-05-20T05:13:26.939Z,14.7
2016-05-20T05:14:26.739Z,14.73
2016-05-20T05:15:26.867Z,14.86
2016-05-20T05:16:26.838Z,14.86
2016-05-20T05:17:26.809Z,14.89
2016-05-20T05:18:26.781Z,14.78
2016-05-20T05:19:26.753Z,14.73
2016-05-20T05:20:26.740Z,14.54
2016-05-20T05:21:26.695Z,14.58
2016-05-20T05:22:26.681Z,14.45
2016-05-20T05:23:26.685Z,14.37
2016-05-20T05:24:26.984Z,14.37
2016-05-20T05:25:26.580Z,14.37
2016-05-20T05:26:26.536Z,14.37
2016-05-20T05:27:26.508Z,14.42
2016-05-20T05:28:26.495Z,14.68
2016-05-20T05:29:27.264Z,14.94
2016-05-20T05:30:27.250Z,15.19
2016-05-20T05:31:27.206Z,15.44
2016-05-20T05:32:27.006Z,15.59
2016-05-20T05:33:26.181Z,15.44
2016-05-20T05:34:26.308Z,15.47
2016-05-20T05:35:26.139Z,15.44
2016-05-20T05:36:26.094Z,15.36
2016-05-20T05:37:26.222Z,15.29
2016-05-20T05:38:26.194Z,15.21
2016-05-20T05:39:26.181Z,15.07
2016-05-20T05:40:26.138Z,14.95
2016-05-20T05:41:26.108Z,14.88
2016-05-20T05:42:25.923Z,14.83
2016-05-20T05:43:26.052Z,14.73
2016-05-20T05:44:25.865Z,14.65
2016-05-20T05:45:26.010Z,14.73
2016-05-20T05:46:25.965Z,14.73
2016-05-20T05:47:25.937Z,14.88
2016-05-20T05:48:25.908Z,14.89
2016-05-20T05:49:25.896Z,15.07
2016-05-20T05:50:26.664Z,15.16
2016-05-20T05:51:26.464Z,15.38
2016-05-20T05:52:26.591Z,15.6
2016-05-20T05:53:26.562Z,15.94
2016-05-20T05:54:26.909Z,16.34
2016-05-20T05:55:26.505Z,16.78
2016-05-20T05:56:26.478Z,17.07
2016-05-20T05:57:26.448Z,17.43
2016-05-20T05:58:25.824Z,17.92
2016-05-20T05:59:25.824Z,18.32
2016-05-20T06:00:26.465Z,18.84
2016-05-20T06:01:26.497Z,19.14
2016-05-20T06:02:25.716Z,19.58
2016-05-20T06:03:26.519Z,19.84
2016-05-20T06:04:26.351Z,20.26
2016-05-20T06:05:26.511Z,20.77
2016-05-20T06:06:26.483Z,21.06
2016-05-20T06:07:26.486Z,21.44
2016-05-20T06:08:26.471Z,21.68
2016-05-20T06:09:26.260Z,22.14
2016-05-20T06:10:26.299Z,22.55
2016-05-20T06:11:26.418Z,22.83
2016-05-20T06:12:26.394Z,23.1
2016-05-20T06:13:26.433Z,23.32
2016-05-20T06:14:26.360Z,23.65
2016-05-20T06:15:26.344Z,23.9
2016-05-20T06:16:26.317Z,24.22
2016-05-20T06:17:25.665Z,24.43
2016-05-20T06:18:26.280Z,24.64
2016-05-20T06:19:26.269Z,24.8
2016-05-20T06:20:26.240Z,24.91
2016-05-20T06:21:26.229Z,24.99
2016-05-20T06:22:26.044Z,25.17
2016-05-20T06:23:26.174Z,25.28
2016-05-20T06:24:26.177Z,25.47
2016-05-20T06:25:26.398Z,25.65
2016-05-20T06:26:25.495Z,25.85
2016-05-20T06:27:26.155Z,25.98
2016-05-20T06:28:26.079Z,26.33
2016-05-20T06:29:26.067Z,26.54
2016-05-20T06:30:26.053Z,26.73
2016-05-20T06:31:26.025Z,27
2016-05-20T06:32:25.372Z,27.12
2016-05-20T06:33:25.984Z,27.4
2016-05-20T06:34:25.970Z,27.54
2016-05-20T06:35:25.958Z,27.75
2016-05-20T06:36:25.930Z,27.79
2016-05-20T06:37:25.901Z,28
2016-05-20T06:38:25.888Z,28.24
2016-05-20T06:39:25.938Z,28.36
2016-05-20T06:40:25.878Z,28.48
2016-05-20T06:41:25.208Z,28.64
2016-05-20T06:42:25.820Z,28.78
2016-05-20T06:43:25.808Z,29.04
2016-05-20T06:44:25.779Z,29.04
2016-05-20T06:45:25.829Z,29.27
2016-05-20T06:46:25.752Z,29.55
2016-05-20T06:47:25.740Z,29.68
2016-05-20T06:48:25.712Z,29.74
2016-05-20T06:49:25.698Z,30
2016-05-20T06:50:25.685Z,30.27
2016-05-20T06:51:25.501Z,30.61
2016-05-20T06:52:25.535Z,30.8
2016-05-20T06:53:25.631Z,30.97
2016-05-20T06:54:25.696Z,31.02
2016-05-20T06:55:25.606Z,31.19
2016-05-20T06:56:24.937Z,31.25
2016-05-20T06:57:25.564Z,31.39
2016-05-20T06:58:25.614Z,31.48
2016-05-20T06:59:24.898Z,31.58
2016-05-20T07:00:25.556Z,31.72
2016-05-20T07:01:25.528Z,31.92
2016-05-20T07:02:25.468Z,32.1
2016-05-20T07:03:25.455Z,32.25
2016-05-20T07:04:25.645Z,32.35
2016-05-20T07:05:25.428Z,32.51
2016-05-20T07:06:25.228Z,32.67
2016-05-20T07:07:25.388Z,32.82
2016-05-20T07:08:25.219Z,32.92
2016-05-20T07:09:25.596Z,33.03
2016-05-20T07:10:25.349Z,33.18
2016-05-20T07:11:25.336Z,33.35
2016-05-20T07:12:24.714Z,33.56
2016-05-20T07:13:24.669Z,33.76
2016-05-20T07:14:25.141Z,33.88
2016-05-20T07:15:24.660Z,34.06
2016-05-20T07:16:25.256Z,34.13
2016-05-20T07:17:25.243Z,34.13
2016-05-20T07:18:25.230Z,34.28
2016-05-20T07:19:24.577Z,34.56
2016-05-20T07:20:24.563Z,34.77
2016-05-20T07:21:25.175Z,34.97
2016-05-20T07:22:25.412Z,35.16
2016-05-20T07:23:24.524Z,35.26
2016-05-20T07:24:25.137Z,34.96
2016-05-20T07:25:24.967Z,34.65
2016-05-20T07:26:25.095Z,34.8
2016-05-20T07:27:24.942Z,35.06
2016-05-20T07:28:25.070Z,35.23
2016-05-20T07:29:25.056Z,35.43
2016-05-20T07:30:25.043Z,35.65
2016-05-20T07:31:25.031Z,35.85
2016-05-20T07:32:25.252Z,36.16
2016-05-20T07:33:25.004Z,36.28
2016-05-20T07:34:24.992Z,36.35
2016-05-20T07:35:24.964Z,36.41
2016-05-20T07:36:24.966Z,36.46
2016-05-20T07:37:24.311Z,36.66
2016-05-20T07:38:24.955Z,36.87
2016-05-20T07:39:24.942Z,37.13
2016-05-20T07:40:25.148Z,37.31
2016-05-20T07:41:24.885Z,37.44
2016-05-20T07:42:24.872Z,37.51
2016-05-20T07:43:24.875Z,37.66
2016-05-20T07:44:24.863Z,37.91
2016-05-20T07:45:25.083Z,38.15
2016-05-20T07:46:25.102Z,38.32
2016-05-20T07:47:24.824Z,38.44
2016-05-20T07:48:24.794Z,38.65
2016-05-20T07:49:24.797Z,38.9
2016-05-20T07:50:25.222Z,39.03
2016-05-20T07:51:24.132Z,39.22
2016-05-20T07:52:24.135Z,39.41
2016-05-20T07:53:23.948Z,39.57
2016-05-20T07:54:24.576Z,39.85
2016-05-20T07:55:24.782Z,39.86
2016-05-20T07:56:24.723Z,39.91
2016-05-20T07:57:24.693Z,40.18
2016-05-20T07:58:24.681Z,40.5
2016-05-20T07:59:24.668Z,40.69
2016-05-20T08:00:24.671Z,40.76
2016-05-20T08:01:24.642Z,40.82
2016-05-20T08:02:24.645Z,40.83
2016-05-20T08:03:24.664Z,40.89
2016-05-20T08:04:38.794Z,40.92
2016-05-20T08:05:24.606Z,40.48
2016-05-20T08:06:24.453Z,40.46
2016-05-20T08:07:23.892Z,40.58
2016-05-20T08:08:23.927Z,40.89
2016-05-20T08:09:23.930Z,41.08
2016-05-20T08:10:25.011Z,41.47
2016-05-20T08:11:24.528Z,41.82
2016-05-20T08:12:24.516Z,41.71
2016-05-20T08:13:23.737Z,41.1
2016-05-20T08:14:24.599Z,40.7
2016-05-20T08:15:24.492Z,40.27
2016-05-20T08:16:24.495Z,40.43
2016-05-20T08:17:39.485Z,39.64
2016-05-20T08:18:23.829Z,38.68
2016-05-20T08:19:24.441Z,38.19
2016-05-20T08:20:32.115Z,38.59
2016-05-20T08:21:24.462Z,39.03
2016-05-20T08:22:27.058Z,39.72
2016-05-20T08:23:24.388Z,39.94
2016-05-20T08:24:24.251Z,39.98
2016-05-20T08:25:32.504Z,40.12
2016-05-20T08:26:23.741Z,40.19
2016-05-20T08:27:24.196Z,39.26
2016-05-20T08:28:24.356Z,38.91
2016-05-20T08:29:23.701Z,37.79
2016-05-20T08:30:28.704Z,36.32
2016-05-20T08:31:24.301Z,34.99
2016-05-20T08:32:23.491Z,33.91
2016-05-20T08:33:24.120Z,32.89
2016-05-20T08:34:27.747Z,32.07
2016-05-20T08:35:29.312Z,31.32
2016-05-20T08:36:24.236Z,30.64
2016-05-20T08:37:25.395Z,29.97
2016-05-20T08:38:24.195Z,29.76
2016-05-20T08:39:24.181Z,29.41
2016-05-20T08:40:24.544Z,28.95
2016-05-20T08:41:23.516Z,29.65
2016-05-20T08:42:24.128Z,31.12
2016-05-20T08:43:23.490Z,32.81
2016-05-20T08:44:23.930Z,33.9
2016-05-20T08:45:23.463Z,33.93
2016-05-20T08:46:24.091Z,33.78
2016-05-20T08:47:24.110Z,34.62
2016-05-20T08:48:23.238Z,34.66
2016-05-20T08:50:24.024Z,33.54
2016-05-20T08:51:23.339Z,32.65
2016-05-20T08:52:23.811Z,31.88
2016-05-20T08:53:23.798Z,30.86
2016-05-20T08:54:23.926Z,30.07
2016-05-20T08:55:24.240Z,29.39
2016-05-20T08:56:23.900Z,28.88
2016-05-20T08:57:23.246Z,29.58
2016-05-20T08:58:23.857Z,31.26
2016-05-20T08:59:23.846Z,32.88
2016-05-20T09:00:23.192Z,34.34
2016-05-20T09:01:23.179Z,35.44
2016-05-20T09:02:23.790Z,36.41
2016-05-20T09:03:23.762Z,37.4
2016-05-20T09:04:23.265Z,37.5
2016-05-20T09:05:23.174Z,36.44
2016-05-20T09:06:23.770Z,35.11
2016-05-20T09:07:23.085Z,33.88
2016-05-20T09:08:22.932Z,32.84
2016-05-20T09:09:23.778Z,32.19
2016-05-20T09:10:23.672Z,31.35
2016-05-20T09:11:23.643Z,30.65
2016-05-20T09:12:23.474Z,29.82
2016-05-20T09:13:23.648Z,29.02
2016-05-20T09:14:23.589Z,28.33
2016-05-20T09:15:23.560Z,27.7
2016-05-20T09:16:22.922Z,28.15
2016-05-20T09:17:23.769Z,29.7
2016-05-20T09:18:22.897Z,31.56
2016-05-20T09:19:22.869Z,32.67
2016-05-20T09:20:23.480Z,32.59
2016-05-20T09:21:23.452Z,32.3
2016-05-20T09:22:23.438Z,31.85
2016-05-20T09:23:23.472Z,31.51
2016-05-20T09:24:23.413Z,30.95
2016-05-20T09:25:22.759Z,30.75
2016-05-20T09:26:23.215Z,31.38
2016-05-20T09:27:23.357Z,31.73
2016-05-20T09:28:23.346Z,32.29
2016-05-20T09:29:23.348Z,31.8
2016-05-20T09:30:23.148Z,30.88
2016-05-20T09:31:23.276Z,29.98
2016-05-20T09:32:23.262Z,30.22
2016-05-20T09:33:23.077Z,30.53
2016-05-20T09:34:23.065Z,29.92
2016-05-20T09:35:22.426Z,29.3
2016-05-20T09:36:23.039Z,28.49
2016-05-20T09:37:23.150Z,28.07
2016-05-20T09:38:23.184Z,28.12
2016-05-20T09:39:37.267Z,29.83
2016-05-20T09:40:23.377Z,31.2
2016-05-20T09:41:23.098Z,32.81
2016-05-20T09:42:22.961Z,34.22
2016-05-20T09:43:22.901Z,35.45
2016-05-20T09:44:23.045Z,36.54
2016-05-20T09:45:23.016Z,37.29
2016-05-20T09:46:22.847Z,37.56
2016-05-20T09:47:23.224Z,37.85
2016-05-20T09:48:22.180Z,37.41
2016-05-20T09:49:22.964Z,37.17
2016-05-20T09:50:22.936Z,37.18
2016-05-20T09:51:22.907Z,36.64
2016-05-20T09:52:22.910Z,36.47
2016-05-20T09:53:22.725Z,36.56
2016-05-20T09:54:23.118Z,36.68
2016-05-20T09:55:22.871Z,36.53
2016-05-20T09:56:23.092Z,36.51
2016-05-20T09:57:22.549Z,36.85
2016-05-20T09:58:22.816Z,37.2
2016-05-20T09:59:22.803Z,37
2016-05-20T10:00:22.837Z,36.19
2016-05-20T10:01:22.356Z,35.78
2016-05-20T10:02:22.780Z,36.08
2016-05-20T10:03:22.752Z,36.25
2016-05-20T10:04:22.739Z,36.09
2016-05-20T10:05:22.085Z,36.12
2016-05-20T10:06:22.713Z,36.28
2016-05-20T10:07:22.701Z,36.76
2016-05-20T10:08:22.687Z,37.05
2016-05-20T10:09:22.674Z,37.4
2016-05-20T10:10:22.973Z,37.74
2016-05-20T10:11:22.648Z,37.98
2016-05-20T10:12:22.636Z,38.31
2016-05-20T10:13:21.997Z,38.42
2016-05-20T10:14:22.453Z,38.69
2016-05-20T10:15:22.581Z,38.91
2016-05-20T10:16:22.411Z,39.1
2016-05-20T10:17:22.555Z,39.36
2016-05-20T10:18:22.542Z,38.6
2016-05-20T10:19:22.575Z,37.57
2016-05-20T10:20:22.407Z,36.47
2016-05-20T10:21:22.519Z,36.15
2016-05-20T10:22:22.490Z,36.54
2016-05-20T10:23:22.477Z,37.13
2016-05-20T10:24:22.480Z,37.81
2016-05-20T10:25:22.483Z,38.54
2016-05-20T10:26:22.298Z,39.06
2016-05-20T10:27:21.801Z,39.11
2016-05-20T10:28:22.428Z,38.26
2016-05-20T10:29:22.634Z,37.64
2016-05-20T10:30:22.387Z,36.68
2016-05-20T10:31:22.374Z,35.62
2016-05-20T10:32:22.376Z,34.62
2016-05-20T10:33:22.348Z,33.54
2016-05-20T10:34:22.351Z,32.7
2016-05-20T10:35:22.369Z,32.41
2016-05-20T10:36:22.309Z,32.6
2016-05-20T10:37:22.718Z,33.44
2016-05-20T10:38:22.268Z,34.43
2016-05-20T10:39:21.645Z,35.6
2016-05-20T10:40:22.257Z,36.59
2016-05-20T10:41:22.245Z,37.55
2016-05-20T10:42:21.450Z,38.35
2016-05-20T10:43:22.048Z,38.96
2016-05-20T10:44:21.549Z,39.29
2016-05-20T10:45:21.553Z,38.83
2016-05-20T10:46:22.165Z,37.75
2016-05-20T10:47:22.136Z,37.25
2016-05-20T10:48:24.311Z,37.13
2016-05-20T10:49:22.126Z,37.13
2016-05-20T10:50:21.941Z,37.17
2016-05-20T10:51:22.099Z,36.76
2016-05-20T10:52:22.087Z,36.08
2016-05-20T10:53:22.542Z,35.77
2016-05-20T10:54:22.045Z,35.6
2016-05-20T10:55:22.047Z,35.21
2016-05-20T10:56:22.019Z,34.54
2016-05-20T10:57:21.382Z,33.95
2016-05-20T10:58:22.010Z,33.76
2016-05-20T10:59:21.888Z,33.65
2016-05-20T11:00:36.232Z,32.97
2016-05-20T11:01:22.251Z,32.57
2016-05-20T11:02:21.145Z,32.06
2016-05-20T11:03:21.757Z,31.53
2016-05-20T11:04:21.744Z,31.07
2016-05-20T11:05:21.918Z,30.34
2016-05-20T11:06:21.859Z,29.65
2016-05-20T11:07:21.221Z,29.21
2016-05-20T11:08:21.848Z,28.54
2016-05-20T11:09:21.867Z,28.11
2016-05-20T11:10:21.792Z,27.72
2016-05-20T11:11:21.138Z,27.34
2016-05-20T11:12:21.766Z,26.92
2016-05-20T11:13:21.596Z,26.51
2016-05-20T11:14:21.567Z,26.02
2016-05-20T11:15:21.726Z,25.36
2016-05-20T11:16:21.683Z,24.53
2016-05-20T11:17:21.686Z,24.12
2016-05-20T11:18:21.750Z,23.97
2016-05-20T11:19:23.144Z,23.79
2016-05-20T11:20:20.975Z,23.6
2016-05-20T11:21:21.586Z,23.28
2016-05-20T11:22:20.761Z,22.76
2016-05-20T11:23:20.763Z,22.27
2016-05-20T11:24:20.719Z,21.92
2016-05-20T11:25:20.972Z,21.68
2016-05-20T11:26:20.678Z,21.28
2016-05-20T11:27:20.649Z,20.98
2016-05-20T11:28:20.683Z,20.48
2016-05-20T11:29:20.686Z,20.03
2016-05-20T11:30:20.596Z,19.73
2016-05-20T11:31:20.567Z,19.48
2016-05-20T11:32:20.569Z,19.31
2016-05-20T11:33:20.650Z,19.07
2016-05-20T11:34:20.496Z,19.02
2016-05-20T11:35:20.468Z,19.04
2016-05-20T11:36:20.440Z,19.14
2016-05-20T11:37:20.410Z,19.08
2016-05-20T11:38:20.398Z,19.06
2016-05-20T11:39:20.353Z,18.99
2016-05-20T11:40:20.340Z,18.87
2016-05-20T11:41:20.312Z,18.84
2016-05-20T11:42:20.315Z,18.9
2016-05-20T11:43:20.270Z,18.98
2016-05-20T11:44:20.227Z,18.98
2016-05-20T11:45:20.214Z,18.95
2016-05-20T11:46:20.028Z,19.1
2016-05-20T11:47:20.156Z,18.9
2016-05-20T11:48:20.315Z,18.94
2016-05-20T11:49:20.350Z,18.92
2016-05-20T11:50:20.102Z,18.99
2016-05-20T11:51:20.059Z,18.92
2016-05-20T11:52:19.872Z,18.76
2016-05-20T11:53:20.000Z,18.63
2016-05-20T11:54:20.019Z,18.44
2016-05-20T11:55:20.178Z,18.32
2016-05-20T11:56:19.759Z,18.2
2016-05-20T11:57:19.918Z,18.26
2016-05-20T11:59:19.861Z,18.26
2016-05-20T12:00:19.801Z,18.21
2016-05-20T12:01:19.804Z,18.14
2016-05-20T12:02:19.744Z,18.21
2016-05-20T12:03:19.746Z,18.3
2016-05-20T12:04:19.702Z,18.36
2016-05-20T12:05:19.658Z,18.3
2016-05-20T12:06:19.629Z,18.27
2016-05-20T12:07:19.804Z,18.25
2016-05-20T12:08:19.603Z,18.26
2016-05-20T12:09:19.576Z,18.33
2016-05-20T12:10:19.531Z,18.36
2016-05-20T12:11:19.502Z,18.41
2016-05-20T12:12:19.474Z,18.55
2016-05-20T12:13:19.477Z,18.6
2016-05-20T12:14:19.635Z,18.66
2016-05-20T12:15:19.247Z,18.72
2016-05-20T12:16:19.375Z,18.98
2016-05-20T12:17:19.331Z,18.95
2016-05-20T12:18:19.209Z,19
2016-05-20T12:19:19.273Z,18.99
2016-05-20T12:20:19.292Z,19.02
2016-05-20T12:21:19.216Z,18.99
2016-05-20T12:22:19.188Z,18.92
2016-05-20T12:23:19.159Z,18.88
2016-05-20T12:24:19.147Z,18.81
2016-05-20T12:25:19.322Z,18.85
2016-05-20T12:26:19.074Z,19
2016-05-20T12:27:19.499Z,19.06
2016-05-20T12:28:19.017Z,18.9
2016-05-20T12:29:19.004Z,18.94
2016-05-20T12:30:19.022Z,18.84
2016-05-20T12:31:18.947Z,18.8
2016-05-20T12:32:18.918Z,18.81
2016-05-20T12:33:18.890Z,18.95
2016-05-20T12:34:18.861Z,18.99
2016-05-20T12:35:18.833Z,18.91
2016-05-20T12:36:18.819Z,18.95
2016-05-20T12:37:18.776Z,18.81
2016-05-20T12:38:18.762Z,18.95
2016-05-20T12:39:18.719Z,18.95
2016-05-20T12:40:18.971Z,18.95
2016-05-20T12:41:18.692Z,18.91
2016-05-20T12:42:18.649Z,18.9
2016-05-20T12:43:18.604Z,18.82
2016-05-20T12:44:18.576Z,18.62
2016-05-20T12:45:18.547Z,18.54
2016-05-20T12:46:18.753Z,18.51
2016-05-20T12:47:18.505Z,18.57
2016-05-20T12:48:18.476Z,18.48
2016-05-20T12:49:18.667Z,18.45
2016-05-20T12:50:18.639Z,18.41
2016-05-20T12:51:18.235Z,18.3
2016-05-20T12:52:18.581Z,18.44
2016-05-20T12:53:18.350Z,18.48
2016-05-20T12:54:18.306Z,18.55
2016-05-20T12:55:18.278Z,18.7
2016-05-20T12:56:18.091Z,18.76
2016-05-20T12:57:18.219Z,18.9
2016-05-20T12:58:18.192Z,18.94
2016-05-20T12:59:18.163Z,19
2016-05-20T13:00:18.150Z,19.14
2016-05-20T13:01:18.090Z,19.22
2016-05-20T13:02:18.327Z,19.26
2016-05-20T13:03:18.080Z,19.31
2016-05-20T13:04:18.036Z,19.43
2016-05-20T13:05:18.007Z,19.41
2016-05-20T13:06:17.978Z,19.18